Reynolds, North Dakota
Current Conditions -  °F | °C
As of 12:23 PM on Monday 22 Dec 2014 (Local Time) from KGFK Reporting Station
Haze Haze  
Wind Chill: 29°   Ceiling: 600
Heat Index: 36°   Visibility: 2.5mi
Dew Point: 36°   Wind: 8mph
Humidity: 100%   Direction: 90°E
Pressure: 29.53"   Gusts: NA
Location:  47.67°N, 97.11°W
Report Text: KGFK 221823Z 09007KT 2 1/2SM BR OVC006 02/02 A2953 RMK AO2 TWR VIS 3 DZE23 P0000
Loading
Personal Weather Stations






























Interactive Weather Map New forecast layout! Learn more

10-Day Weather Forecast

Advertisements
Track Severe Weather on mobile